logo dgac
Martes 16 de Julio del 2019
Buscar por aerodromo o helipuerto
Ingrese nombre de aeródromo, localidad o designador OACI:
METAR del 17-07-2019 a las 01:00 UTC
METAR SCFT 170100Z AUTO 21003KT 170V280 7000 BR ///006 06/05 Q1009
Nan: AUTO
Viento: dirección 210 grados, velocidad 3 nudos
Viento con dirección variable entre 170 y 280 grados
Visibilidad: 7000 metros
Neblina
Nan: ///006
Temperatura: 6 °C
Rocío: 5 °C
Humedad_relativa: 93%
Presión: 1009 hPa
METAR del 17-07-2019 a las 00:00 UTC
METAR SCFT 170000Z AUTO 00000KT 7000 -RA ///002 06/05 Q1009
Nan: AUTO
Visibilidad: 7000 metros
Débil Lluvia
Nan: ///002
Temperatura: 6 °C
Rocío: 5 °C
Humedad_relativa: 93%
Presión: 1009 hPa
METAR del 16-07-2019 a las 23:00 UTC
METAR SCFT 162300Z AUTO VRB01KT 9999 RA ///006 06/05 Q1009
Nan: AUTO
Viento: dirección variable, velocidad 1 nudos
Visibilidad: 10 km o más
Lluvia
Nan: ///006
Temperatura: 6 °C
Rocío: 5 °C
Humedad_relativa: 93%
Presión: 1009 hPa
METAR del 16-07-2019 a las 22:00 UTC
METAR SCFT 162200Z AUTO 00000KT 9999 RA ///005 06/05 Q1009
Nan: AUTO
Visibilidad: 10 km o más
Lluvia
Nan: ///005
Temperatura: 6 °C
Rocío: 5 °C
Humedad_relativa: 93%
Presión: 1009 hPa
METAR del 16-07-2019 a las 21:00 UTC
METAR SCFT 162100Z AUTO VRB02KT 9999 -RA ///004 07/06 Q1009
Nan: AUTO
Viento: dirección variable, velocidad 2 nudos
Visibilidad: 10 km o más
Débil Lluvia
Nan: ///004
Temperatura: 7 °C
Rocío: 6 °C
Humedad_relativa: 93%
Presión: 1009 hPa
METAR del 16-07-2019 a las 21:00 UTC
METAR SCFT 162100Z AUTO VRB02KT 9999 -RA ///004 07/06 Q1009
Nan: AUTO
Viento: dirección variable, velocidad 2 nudos
Visibilidad: 10 km o más
Débil Lluvia
Nan: ///004
Temperatura: 7 °C
Rocío: 6 °C
Humedad_relativa: 93%
Presión: 1009 hPa
METAR del 16-07-2019 a las 20:00 UTC
METAR SCFT 162000Z AUTO VRB02KT 7000 -RA ///019 07/06 Q1008
Nan: AUTO
Viento: dirección variable, velocidad 2 nudos
Visibilidad: 7000 metros
Débil Lluvia
Nan: ///019
Temperatura: 7 °C
Rocío: 6 °C
Humedad_relativa: 93%
Presión: 1008 hPa
METAR del 16-07-2019 a las 20:00 UTC
METAR SCFT 162000Z AUTO VRB02KT 7000 -RA ///019 07/06 Q1008
Nan: AUTO
Viento: dirección variable, velocidad 2 nudos
Visibilidad: 7000 metros
Débil Lluvia
Nan: ///019
Temperatura: 7 °C
Rocío: 6 °C
Humedad_relativa: 93%
Presión: 1008 hPa
METAR del 16-07-2019 a las 19:00 UTC
METAR SCFT 161900Z AUTO VRB02KT 7000 -RA ///021 08/06 Q1008
Nan: AUTO
Viento: dirección variable, velocidad 2 nudos
Visibilidad: 7000 metros
Débil Lluvia
Nan: ///021
Temperatura: 8 °C
Rocío: 6 °C
Humedad_relativa: 87%
Presión: 1008 hPa
METAR del 16-07-2019 a las 19:00 UTC
METAR SCFT 161900Z AUTO VRB02KT 7000 -RA ///021 08/06 Q1008
Nan: AUTO
Viento: dirección variable, velocidad 2 nudos
Visibilidad: 7000 metros
Débil Lluvia
Nan: ///021
Temperatura: 8 °C
Rocío: 6 °C
Humedad_relativa: 87%
Presión: 1008 hPa